sensor_id;sensor_type;location;lat;lon;timestamp;pressure;altitude;pressure_sealevel;temperature;humidity
68656;BME280;55638;51.122;13.606;2022-11-20T00:00:19;99867.97;;;-8.13;61.49
68656;BME280;55638;51.122;13.606;2022-11-20T00:01:51;99870.63;;;-8.14;61.25
68656;BME280;55638;51.122;13.606;2022-11-20T00:03:23;99875.03;;;-8.16;61.37
68656;BME280;55638;51.122;13.606;2022-11-20T00:04:55;99867.22;;;-8.19;61.23
68656;BME280;55638;51.122;13.606;2022-11-20T00:06:27;99860.25;;;-8.20;61.45
68656;BME280;55638;51.122;13.606;2022-11-20T00:07:59;99862.00;;;-8.21;61.36
68656;BME280;55638;51.122;13.606;2022-11-20T00:09:31;99859.44;;;-8.24;61.44
68656;BME280;55638;51.122;13.606;2022-11-20T00:11:09;99860.34;;;-8.26;61.47
68656;BME280;55638;51.122;13.606;2022-11-20T00:12:46;99849.91;;;-8.28;61.51
68656;BME280;55638;51.122;13.606;2022-11-20T00:14:18;99854.28;;;-8.30;61.50
68656;BME280;55638;51.122;13.606;2022-11-20T00:15:56;99855.19;;;-8.31;61.51
68656;BME280;55638;51.122;13.606;2022-11-20T00:17:28;99855.19;;;-8.33;61.64
68656;BME280;55638;51.122;13.606;2022-11-20T00:19:00;99850.88;;;-8.34;61.44
68656;BME280;55638;51.122;13.606;2022-11-20T00:20:32;99850.88;;;-8.35;61.65
68656;BME280;55638;51.122;13.606;2022-11-20T00:22:04;99851.78;;;-8.36;61.34
68656;BME280;55638;51.122;13.606;2022-11-20T00:23:36;99856.09;;;-8.35;61.44
68656;BME280;55638;51.122;13.606;2022-11-20T00:25:07;99857.06;;;-8.38;61.67
68656;BME280;55638;51.122;13.606;2022-11-20T00:26:39;99859.69;;;-8.39;61.71
68656;BME280;55638;51.122;13.606;2022-11-20T00:28:12;99856.19;;;-8.40;61.88
68656;BME280;55638;51.122;13.606;2022-11-20T00:29:44;99850.09;;;-8.40;61.59
68656;BME280;55638;51.122;13.606;2022-11-20T00:31:16;99859.72;;;-8.41;61.77
68656;BME280;55638;51.122;13.606;2022-11-20T00:32:48;99857.97;;;-8.40;61.81
68656;BME280;55638;51.122;13.606;2022-11-20T00:34:19;99858.81;;;-8.41;61.63
68656;BME280;55638;51.122;13.606;2022-11-20T00:35:51;99863.22;;;-8.42;61.71
68656;BME280;55638;51.122;13.606;2022-11-20T00:37:23;99867.56;;;-8.41;61.69
68656;BME280;55638;51.122;13.606;2022-11-20T00:38:56;99869.34;;;-8.43;61.55
68656;BME280;55638;51.122;13.606;2022-11-20T00:40:28;99879.81;;;-8.43;61.66
68656;BME280;55638;51.122;13.606;2022-11-20T00:42:00;99878.09;;;-8.44;61.62
68656;BME280;55638;51.122;13.606;2022-11-20T00:43:32;99877.22;;;-8.44;61.67
68656;BME280;55638;51.122;13.606;2022-11-20T00:45:05;99867.66;;;-8.47;61.62
68656;BME280;55638;51.122;13.606;2022-11-20T00:46:36;99877.25;;;-8.46;61.93
68656;BME280;55638;51.122;13.606;2022-11-20T00:48:08;99879.88;;;-8.46;62.16
68656;BME280;55638;51.122;13.606;2022-11-20T00:49:40;99884.25;;;-8.46;62.26
68656;BME280;55638;51.122;13.606;2022-11-20T00:51:17;99875.50;;;-8.45;62.09
68656;BME280;55638;51.122;13.606;2022-11-20T00:52:52;99886.81;;;-8.43;62.11
68656;BME280;55638;51.122;13.606;2022-11-20T00:54:24;99885.91;;;-8.42;62.37
68656;BME280;55638;51.122;13.606;2022-11-20T00:55:58;99883.31;;;-8.42;62.39
68656;BME280;55638;51.122;13.606;2022-11-20T00:57:30;99880.69;;;-8.41;62.47
68656;BME280;55638;51.122;13.606;2022-11-20T00:59:02;99875.41;;;-8.39;62.45
68656;BME280;55638;51.122;13.606;2022-11-20T01:00:34;99881.50;;;-8.39;62.47
68656;BME280;55638;51.122;13.606;2022-11-20T01:02:06;99878.00;;;-8.38;62.48
68656;BME280;55638;51.122;13.606;2022-11-20T01:03:40;99882.31;;;-8.35;62.43
68656;BME280;55638;51.122;13.606;2022-11-20T01:05:11;99883.16;;;-8.33;62.33
68656;BME280;55638;51.122;13.606;2022-11-20T01:06:43;99882.25;;;-8.32;62.31
68656;BME280;55638;51.122;13.606;2022-11-20T01:08:15;99882.25;;;-8.30;62.50
68656;BME280;55638;51.122;13.606;2022-11-20T01:09:47;99883.97;;;-8.28;62.55
68656;BME280;55638;51.122;13.606;2022-11-20T01:11:22;99881.34;;;-8.28;62.58
68656;BME280;55638;51.122;13.606;2022-11-20T01:12:54;99880.41;;;-8.25;62.47
68656;BME280;55638;51.122;13.606;2022-11-20T01:14:47;99876.91;;;-8.24;62.45
68656;BME280;55638;51.122;13.606;2022-11-20T01:17:51;99880.34;;;-8.21;62.06
68656;BME280;55638;51.122;13.606;2022-11-20T01:19:23;99880.34;;;-8.21;62.01
68656;BME280;55638;51.122;13.606;2022-11-20T01:21:00;99881.22;;;-8.20;62.00
68656;BME280;55638;51.122;13.606;2022-11-20T01:22:32;99879.44;;;-8.20;61.82
68656;BME280;55638;51.122;13.606;2022-11-20T01:24:06;99882.06;;;-8.20;61.77
68656;BME280;55638;51.122;13.606;2022-11-20T01:25:39;99872.50;;;-8.21;61.70
68656;BME280;55638;51.122;13.606;2022-11-20T01:27:11;99877.69;;;-8.19;61.65
68656;BME280;55638;51.122;13.606;2022-11-20T01:28:43;99869.00;;;-8.21;61.44
68656;BME280;55638;51.122;13.606;2022-11-20T01:30:15;99872.50;;;-8.22;61.46
68656;BME280;55638;51.122;13.606;2022-11-20T01:31:47;99874.25;;;-8.23;61.42
68656;BME280;55638;51.122;13.606;2022-11-20T01:33:19;99874.28;;;-8.24;61.60
68656;BME280;55638;51.122;13.606;2022-11-20T01:34:50;99871.69;;;-8.26;61.50
68656;BME280;55638;51.122;13.606;2022-11-20T01:36:24;99869.06;;;-8.26;61.33
68656;BME280;55638;51.122;13.606;2022-11-20T01:37:56;99872.59;;;-8.27;61.52
68656;BME280;55638;51.122;13.606;2022-11-20T01:39:28;99863.00;;;-8.29;61.54
68656;BME280;55638;51.122;13.606;2022-11-20T01:41:00;99872.59;;;-8.28;61.55
68656;BME280;55638;51.122;13.606;2022-11-20T01:42:32;99870.88;;;-8.28;61.47
68656;BME280;55638;51.122;13.606;2022-11-20T01:44:43;99866.53;;;-8.32;61.63
68656;BME280;55638;51.122;13.606;2022-11-20T01:46:18;99867.44;;;-8.33;61.60
68656;BME280;55638;51.122;13.606;2022-11-20T01:47:50;99861.31;;;-8.32;61.67
68656;BME280;55638;51.122;13.606;2022-11-20T01:49:37;99861.34;;;-8.35;61.59
68656;BME280;55638;51.122;13.606;2022-11-20T01:51:17;99861.34;;;-8.35;61.64
68656;BME280;55638;51.122;13.606;2022-11-20T01:53:03;99862.28;;;-8.38;61.52
68656;BME280;55638;51.122;13.606;2022-11-20T01:54:59;99854.41;;;-8.36;61.52
68656;BME280;55638;51.122;13.606;2022-11-20T01:56:31;99851.78;;;-8.36;61.36
68656;BME280;55638;51.122;13.606;2022-11-20T01:58:05;99857.06;;;-8.38;61.50
68656;BME280;55638;51.122;13.606;2022-11-20T01:59:41;99848.31;;;-8.38;61.68
68656;BME280;55638;51.122;13.606;2022-11-20T02:01:16;99843.97;;;-8.39;61.68
68656;BME280;55638;51.122;13.606;2022-11-20T02:02:52;99849.25;;;-8.41;61.52
68656;BME280;55638;51.122;13.606;2022-11-20T02:04:25;99849.22;;;-8.39;61.60
68656;BME280;55638;51.122;13.606;2022-11-20T02:06:27;99847.53;;;-8.43;61.56
68656;BME280;55638;51.122;13.606;2022-11-20T02:08:02;99846.63;;;-8.41;61.39
68656;BME280;55638;51.122;13.606;2022-11-20T02:09:35;99847.50;;;-8.42;61.60
68656;BME280;55638;51.122;13.606;2022-11-20T02:11:07;99844.91;;;-8.43;61.67
68656;BME280;55638;51.122;13.606;2022-11-20T02:12:39;99845.78;;;-8.44;61.71
68656;BME280;55638;51.122;13.606;2022-11-20T02:14:29;99844.06;;;-8.44;61.62
68656;BME280;55638;51.122;13.606;2022-11-20T02:16:02;99846.69;;;-8.45;61.46
68656;BME280;55638;51.122;13.606;2022-11-20T02:17:34;99839.69;;;-8.45;61.47
68656;BME280;55638;51.122;13.606;2022-11-20T02:19:11;99840.63;;;-8.47;61.43
68656;BME280;55638;51.122;13.606;2022-11-20T02:20:48;99840.63;;;-8.47;61.51
68656;BME280;55638;51.122;13.606;2022-11-20T02:22:32;99838.88;;;-8.48;61.50
68656;BME280;55638;51.122;13.606;2022-11-20T02:24:23;99839.78;;;-8.51;61.37
68656;BME280;55638;51.122;13.606;2022-11-20T02:25:55;99841.50;;;-8.48;61.37
68656;BME280;55638;51.122;13.606;2022-11-20T02:27:29;99835.44;;;-8.50;61.38
68656;BME280;55638;51.122;13.606;2022-11-20T02:29:02;99839.81;;;-8.52;61.40
68656;BME280;55638;51.122;13.606;2022-11-20T02:30:34;99838.06;;;-8.52;61.32
68656;BME280;55638;51.122;13.606;2022-11-20T02:32:06;99838.09;;;-8.53;61.32
68656;BME280;55638;51.122;13.606;2022-11-20T02:33:38;99841.56;;;-8.53;61.46
68656;BME280;55638;51.122;13.606;2022-11-20T02:36:52;99832.88;;;-8.53;61.66
68656;BME280;55638;51.122;13.606;2022-11-20T02:38:24;99833.72;;;-8.55;61.56
68656;BME280;55638;51.122;13.606;2022-11-20T02:39:56;99838.09;;;-8.55;61.67
68656;BME280;55638;51.122;13.606;2022-11-20T02:41:36;99831.09;;;-8.53;61.74
68656;BME280;55638;51.122;13.606;2022-11-20T02:43:08;99830.19;;;-8.52;61.75
68656;BME280;55638;51.122;13.606;2022-11-20T02:44:40;99837.19;;;-8.52;61.78
68656;BME280;55638;51.122;13.606;2022-11-20T02:46:12;99837.16;;;-8.51;61.95
68656;BME280;55638;51.122;13.606;2022-11-20T02:47:44;99832.88;;;-8.53;61.74
68656;BME280;55638;51.122;13.606;2022-11-20T02:49:16;99830.25;;;-8.55;61.69
68656;BME280;55638;51.122;13.606;2022-11-20T02:50:51;99835.47;;;-8.53;61.53
68656;BME280;55638;51.122;13.606;2022-11-20T02:52:23;99833.72;;;-8.55;61.38
68656;BME280;55638;51.122;13.606;2022-11-20T02:53:55;99832.88;;;-8.53;61.36
68656;BME280;55638;51.122;13.606;2022-11-20T02:55:27;99836.34;;;-8.55;61.32
68656;BME280;55638;51.122;13.606;2022-11-20T02:56:59;99837.25;;;-8.56;61.31
68656;BME280;55638;51.122;13.606;2022-11-20T02:58:31;99837.25;;;-8.56;61.32
68656;BME280;55638;51.122;13.606;2022-11-20T03:00:04;99836.38;;;-8.56;61.38
68656;BME280;55638;51.122;13.606;2022-11-20T03:01:36;99835.53;;;-8.57;61.29
68656;BME280;55638;51.122;13.606;2022-11-20T03:03:08;99833.78;;;-8.58;61.26
68656;BME280;55638;51.122;13.606;2022-11-20T03:04:39;99835.56;;;-8.60;61.34
68656;BME280;55638;51.122;13.606;2022-11-20T03:06:11;99825.09;;;-8.60;61.21
68656;BME280;55638;51.122;13.606;2022-11-20T03:07:43;99832.97;;;-8.61;61.24
68656;BME280;55638;51.122;13.606;2022-11-20T03:09:15;99827.75;;;-8.63;61.25
68656;BME280;55638;51.122;13.606;2022-11-20T03:10:47;99830.38;;;-8.63;61.38
68656;BME280;55638;51.122;13.606;2022-11-20T03:12:19;99826.91;;;-8.65;61.15
68656;BME280;55638;51.122;13.606;2022-11-20T03:13:50;99829.53;;;-8.65;61.17
68656;BME280;55638;51.122;13.606;2022-11-20T03:15:23;99826.09;;;-8.67;61.10
68656;BME280;55638;51.122;13.606;2022-11-20T03:16:55;99836.56;;;-8.67;61.09
68656;BME280;55638;51.122;13.606;2022-11-20T03:18:28;99826.09;;;-8.68;60.99
68656;BME280;55638;51.122;13.606;2022-11-20T03:20:00;99822.63;;;-8.69;60.79
68656;BME280;55638;51.122;13.606;2022-11-20T03:21:35;99818.28;;;-8.71;61.15
68656;BME280;55638;51.122;13.606;2022-11-20T03:23:07;99820.91;;;-8.71;61.33
68656;BME280;55638;51.122;13.606;2022-11-20T03:24:38;99819.19;;;-8.72;61.31
68656;BME280;55638;51.122;13.606;2022-11-20T03:27:42;99819.22;;;-8.75;61.31
68656;BME280;55638;51.122;13.606;2022-11-20T03:29:14;99820.09;;;-8.75;61.25
68656;BME280;55638;51.122;13.606;2022-11-20T03:30:45;99822.75;;;-8.76;61.14
68656;BME280;55638;51.122;13.606;2022-11-20T03:32:17;99814.00;;;-8.77;61.16
68656;BME280;55638;51.122;13.606;2022-11-20T03:33:49;99820.13;;;-8.78;60.92
68656;BME280;55638;51.122;13.606;2022-11-20T03:35:21;99813.19;;;-8.79;61.06
68656;BME280;55638;51.122;13.606;2022-11-20T03:36:53;99812.31;;;-8.80;61.03
68656;BME280;55638;51.122;13.606;2022-11-20T03:38:25;99814.09;;;-8.82;60.95
68656;BME280;55638;51.122;13.606;2022-11-20T03:39:56;99812.38;;;-8.84;61.14
68656;BME280;55638;51.122;13.606;2022-11-20T03:41:30;99824.63;;;-8.86;61.17
68656;BME280;55638;51.122;13.606;2022-11-20T03:43:02;99824.63;;;-8.86;61.39
68656;BME280;55638;51.122;13.606;2022-11-20T03:44:34;99825.50;;;-8.87;61.51
68656;BME280;55638;51.122;13.606;2022-11-20T03:46:06;99828.13;;;-8.86;61.78
68656;BME280;55638;51.122;13.606;2022-11-20T03:47:38;99828.13;;;-8.86;61.74
68656;BME280;55638;51.122;13.606;2022-11-20T03:49:10;99821.13;;;-8.85;61.76
68656;BME280;55638;51.122;13.606;2022-11-20T03:50:42;99815.00;;;-8.84;61.89
68656;BME280;55638;51.122;13.606;2022-11-20T03:52:13;99817.59;;;-8.84;61.87
68656;BME280;55638;51.122;13.606;2022-11-20T03:53:46;99814.09;;;-8.82;61.88
68656;BME280;55638;51.122;13.606;2022-11-20T03:55:18;99813.22;;;-8.82;62.04
68656;BME280;55638;51.122;13.606;2022-11-20T03:56:50;99818.44;;;-8.81;62.17
68656;BME280;55638;51.122;13.606;2022-11-20T03:58:22;99815.81;;;-8.79;62.21
68656;BME280;55638;51.122;13.606;2022-11-20T03:59:54;99812.28;;;-8.76;62.28
68656;BME280;55638;51.122;13.606;2022-11-20T04:01:28;99820.13;;;-8.76;62.38
68656;BME280;55638;51.122;13.606;2022-11-20T04:03:01;99806.09;;;-8.74;62.53
68656;BME280;55638;51.122;13.606;2022-11-20T04:04:33;99807.84;;;-8.73;62.69
68656;BME280;55638;51.122;13.606;2022-11-20T04:06:10;99808.69;;;-8.71;63.08
68656;BME280;55638;51.122;13.606;2022-11-20T04:07:43;99802.53;;;-8.68;63.17
68656;BME280;55638;51.122;13.606;2022-11-20T04:09:14;99799.88;;;-8.64;63.21
68656;BME280;55638;51.122;13.606;2022-11-20T04:10:47;99801.59;;;-8.63;63.24
68656;BME280;55638;51.122;13.606;2022-11-20T04:12:19;99804.16;;;-8.60;63.47
68656;BME280;55638;51.122;13.606;2022-11-20T04:13:53;99800.59;;;-8.56;63.25
68656;BME280;55638;51.122;13.606;2022-11-20T04:15:25;99801.38;;;-8.50;63.14
68656;BME280;55638;51.122;13.606;2022-11-20T04:16:56;99793.44;;;-8.46;63.09
68656;BME280;55638;51.122;13.606;2022-11-20T04:18:28;99807.34;;;-8.42;62.92
68656;BME280;55638;51.122;13.606;2022-11-20T04:20:00;99792.47;;;-8.40;63.04
68656;BME280;55638;51.122;13.606;2022-11-20T04:21:32;99795.00;;;-8.34;63.09
68656;BME280;55638;51.122;13.606;2022-11-20T04:23:04;99793.19;;;-8.32;63.07
68656;BME280;55638;51.122;13.606;2022-11-20T04:24:35;99801.88;;;-8.28;62.90
68656;BME280;55638;51.122;13.606;2022-11-20T04:26:09;99792.22;;;-8.26;62.66
68656;BME280;55638;51.122;13.606;2022-11-20T04:27:41;99800.00;;;-8.22;62.58
68656;BME280;55638;51.122;13.606;2022-11-20T04:29:13;99798.22;;;-8.20;62.43
68656;BME280;55638;51.122;13.606;2022-11-20T04:30:45;99784.22;;;-8.19;62.41
68656;BME280;55638;51.122;13.606;2022-11-20T04:32:17;99785.97;;;-8.18;62.33
68656;BME280;55638;51.122;13.606;2022-11-20T04:33:49;99781.59;;;-8.17;62.27
68656;BME280;55638;51.122;13.606;2022-11-20T04:35:21;99778.91;;;-8.14;62.08
68656;BME280;55638;51.122;13.606;2022-11-20T04:36:52;99773.63;;;-8.13;62.14
68656;BME280;55638;51.122;13.606;2022-11-20T04:38:24;99772.75;;;-8.12;62.04
68656;BME280;55638;51.122;13.606;2022-11-20T04:39:56;99764.00;;;-8.12;61.90
68656;BME280;55638;51.122;13.606;2022-11-20T04:41:30;99764.91;;;-8.12;62.05
68656;BME280;55638;51.122;13.606;2022-11-20T04:43:02;99764.00;;;-8.11;62.10
68656;BME280;55638;51.122;13.606;2022-11-20T04:44:34;99765.66;;;-8.06;62.11
68656;BME280;55638;51.122;13.606;2022-11-20T04:46:06;99763.03;;;-8.06;62.02
68656;BME280;55638;51.122;13.606;2022-11-20T04:47:38;99768.28;;;-8.06;62.23
68656;BME280;55638;51.122;13.606;2022-11-20T04:49:10;99770.00;;;-8.05;62.08
68656;BME280;55638;51.122;13.606;2022-11-20T04:50:43;99775.25;;;-8.05;62.33
68656;BME280;55638;51.122;13.606;2022-11-20T04:52:14;99772.66;;;-8.07;62.31
68656;BME280;55638;51.122;13.606;2022-11-20T04:53:46;99777.00;;;-8.04;62.43
68656;BME280;55638;51.122;13.606;2022-11-20T04:55:18;99778.72;;;-8.03;62.57
68656;BME280;55638;51.122;13.606;2022-11-20T04:56:50;99783.94;;;-8.02;62.53
68656;BME280;55638;51.122;13.606;2022-11-20T04:58:22;99787.38;;;-7.98;62.51
68656;BME280;55638;51.122;13.606;2022-11-20T04:59:53;99784.75;;;-7.98;62.52
68656;BME280;55638;51.122;13.606;2022-11-20T05:01:25;99789.03;;;-7.96;62.38
68656;BME280;55638;51.122;13.606;2022-11-20T05:02:57;99792.53;;;-7.95;62.28
68656;BME280;55638;51.122;13.606;2022-11-20T05:04:29;99787.25;;;-7.92;62.22
68656;BME280;55638;51.122;13.606;2022-11-20T05:06:01;99785.50;;;-7.93;62.30
68656;BME280;55638;51.122;13.606;2022-11-20T05:07:33;99783.72;;;-7.91;62.31
68656;BME280;55638;51.122;13.606;2022-11-20T05:09:05;99792.50;;;-7.92;62.29
68656;BME280;55638;51.122;13.606;2022-11-20T05:10:37;99788.97;;;-7.91;62.27
68656;BME280;55638;51.122;13.606;2022-11-20T05:12:09;99795.88;;;-7.87;62.25
68656;BME280;55638;51.122;13.606;2022-11-20T05:13:41;99783.59;;;-7.85;62.16
68656;BME280;55638;51.122;13.606;2022-11-20T05:15:13;99781.84;;;-7.86;62.17
68656;BME280;55638;51.122;13.606;2022-11-20T05:16:45;99787.09;;;-7.85;62.19
68656;BME280;55638;51.122;13.606;2022-11-20T05:18:17;99789.66;;;-7.83;62.22
68656;BME280;55638;51.122;13.606;2022-11-20T05:19:49;99777.47;;;-7.84;62.27
68656;BME280;55638;51.122;13.606;2022-11-20T05:21:23;99782.69;;;-7.82;62.08
68656;BME280;55638;51.122;13.606;2022-11-20T05:22:58;99787.94;;;-7.82;62.07
68656;BME280;55638;51.122;13.606;2022-11-20T05:24:30;99788.75;;;-7.80;62.01
68656;BME280;55638;51.122;13.606;2022-11-20T05:26:03;99792.22;;;-7.78;62.04
68656;BME280;55638;51.122;13.606;2022-11-20T05:27:35;99783.56;;;-7.82;61.87
68656;BME280;55638;51.122;13.606;2022-11-20T05:29:06;99783.50;;;-7.80;61.99
68656;BME280;55638;51.122;13.606;2022-11-20T05:30:40;99780.09;;;-7.84;61.91
68656;BME280;55638;51.122;13.606;2022-11-20T05:32:12;99783.56;;;-7.82;61.73
68656;BME280;55638;51.122;13.606;2022-11-20T05:33:44;99778.31;;;-7.82;61.92
68656;BME280;55638;51.122;13.606;2022-11-20T05:35:16;99773.13;;;-7.85;61.80
68656;BME280;55638;51.122;13.606;2022-11-20T05:36:48;99778.38;;;-7.85;62.09
68656;BME280;55638;51.122;13.606;2022-11-20T05:38:20;99770.50;;;-7.85;61.98
68656;BME280;55638;51.122;13.606;2022-11-20T05:39:52;99769.53;;;-7.81;61.85
68656;BME280;55638;51.122;13.606;2022-11-20T05:41:24;99771.31;;;-7.83;61.88
68656;BME280;55638;51.122;13.606;2022-11-20T05:42:56;99769.59;;;-7.84;61.87
68656;BME280;55638;51.122;13.606;2022-11-20T05:44:28;99771.38;;;-7.85;61.73
68656;BME280;55638;51.122;13.606;2022-11-20T05:46:00;99775.75;;;-7.85;61.80
68656;BME280;55638;51.122;13.606;2022-11-20T05:47:33;99766.13;;;-7.86;61.76
68656;BME280;55638;51.122;13.606;2022-11-20T05:49:05;99773.13;;;-7.87;61.70
68656;BME280;55638;51.122;13.606;2022-11-20T05:50:37;99769.66;;;-7.87;61.60
68656;BME280;55638;51.122;13.606;2022-11-20T05:52:09;99772.34;;;-7.90;61.66
68656;BME280;55638;51.122;13.606;2022-11-20T05:53:41;99772.31;;;-7.89;61.71
68656;BME280;55638;51.122;13.606;2022-11-20T05:55:19;99768.81;;;-7.89;61.59
68656;BME280;55638;51.122;13.606;2022-11-20T05:56:50;99771.44;;;-7.89;61.55
68656;BME280;55638;51.122;13.606;2022-11-20T05:58:22;99771.53;;;-7.92;61.73
68656;BME280;55638;51.122;13.606;2022-11-20T05:59:54;99761.91;;;-7.93;61.57
68656;BME280;55638;51.122;13.606;2022-11-20T06:01:26;99767.16;;;-7.93;61.51
68656;BME280;55638;51.122;13.606;2022-11-20T06:02:57;99761.97;;;-7.95;61.38
68656;BME280;55638;51.122;13.606;2022-11-20T06:04:29;99773.28;;;-7.94;61.49
68656;BME280;55638;51.122;13.606;2022-11-20T06:06:02;99773.28;;;-7.94;61.44
68656;BME280;55638;51.122;13.606;2022-11-20T06:07:34;99769.81;;;-7.95;61.43
68656;BME280;55638;51.122;13.606;2022-11-20T06:09:06;99770.69;;;-7.96;61.39
68656;BME280;55638;51.122;13.606;2022-11-20T06:10:38;99769.00;;;-7.98;61.51
68656;BME280;55638;51.122;13.606;2022-11-20T06:12:10;99772.44;;;-7.96;61.54
68656;BME280;55638;51.122;13.606;2022-11-20T06:13:42;99762.88;;;-7.97;61.54
68656;BME280;55638;51.122;13.606;2022-11-20T06:15:13;99755.91;;;-7.98;61.32
68656;BME280;55638;51.122;13.606;2022-11-20T06:16:45;99757.63;;;-7.97;61.53
68656;BME280;55638;51.122;13.606;2022-11-20T06:18:17;99760.31;;;-8.00;61.30
68656;BME280;55638;51.122;13.606;2022-11-20T06:19:49;99759.38;;;-7.98;61.31
68656;BME280;55638;51.122;13.606;2022-11-20T06:21:22;99754.16;;;-7.99;61.21
68656;BME280;55638;51.122;13.606;2022-11-20T06:22:54;99748.91;;;-7.99;61.27
68656;BME280;55638;51.122;13.606;2022-11-20T06:24:25;99743.69;;;-7.99;61.24
68656;BME280;55638;51.122;13.606;2022-11-20T06:26:01;99747.25;;;-8.02;61.14
68656;BME280;55638;51.122;13.606;2022-11-20T06:27:33;99748.06;;;-8.00;61.18
68656;BME280;55638;51.122;13.606;2022-11-20T06:29:04;99757.69;;;-8.00;61.23
68656;BME280;55638;51.122;13.606;2022-11-20T06:30:36;99753.34;;;-8.03;61.47
68656;BME280;55638;51.122;13.606;2022-11-20T06:32:08;99750.75;;;-8.03;61.15
68656;BME280;55638;51.122;13.606;2022-11-20T06:33:41;99745.53;;;-8.04;61.20
68656;BME280;55638;51.122;13.606;2022-11-20T06:35:13;99744.63;;;-8.03;61.20
68656;BME280;55638;51.122;13.606;2022-11-20T06:36:45;99748.97;;;-8.02;61.36
68656;BME280;55638;51.122;13.606;2022-11-20T06:38:16;99748.13;;;-8.03;61.24
68656;BME280;55638;51.122;13.606;2022-11-20T06:39:48;99742.91;;;-8.04;61.30
68656;BME280;55638;51.122;13.606;2022-11-20T06:41:21;99742.94;;;-8.06;61.44
68656;BME280;55638;51.122;13.606;2022-11-20T06:42:54;99746.41;;;-8.05;61.46
68656;BME280;55638;51.122;13.606;2022-11-20T06:44:26;99746.41;;;-8.05;61.50
68656;BME280;55638;51.122;13.606;2022-11-20T06:45:58;99739.44;;;-8.05;61.66
68656;BME280;55638;51.122;13.606;2022-11-20T06:47:30;99742.03;;;-8.03;61.82
68656;BME280;55638;51.122;13.606;2022-11-20T06:49:02;99744.63;;;-8.02;61.65
68656;BME280;55638;51.122;13.606;2022-11-20T06:50:34;99746.28;;;-7.99;61.82
68656;BME280;55638;51.122;13.606;2022-11-20T06:52:05;99750.72;;;-8.01;61.69
68656;BME280;55638;51.122;13.606;2022-11-20T06:53:38;99743.69;;;-7.99;61.92
68656;BME280;55638;51.122;13.606;2022-11-20T06:55:10;99749.88;;;-8.02;61.97
68656;BME280;55638;51.122;13.606;2022-11-20T06:56:41;99746.28;;;-7.99;62.08
68656;BME280;55638;51.122;13.606;2022-11-20T06:58:14;99744.47;;;-7.96;62.14
68656;BME280;55638;51.122;13.606;2022-11-20T06:59:46;99746.28;;;-7.99;61.87
68656;BME280;55638;51.122;13.606;2022-11-20T07:01:18;99736.59;;;-7.94;62.06
68656;BME280;55638;51.122;13.606;2022-11-20T07:02:50;99738.38;;;-7.95;61.82
68656;BME280;55638;51.122;13.606;2022-11-20T07:04:21;99744.38;;;-7.90;61.83
68656;BME280;55638;51.122;13.606;2022-11-20T07:05:57;99742.53;;;-7.86;62.08
68656;BME280;55638;51.122;13.606;2022-11-20T07:07:29;99741.66;;;-7.85;61.97
68656;BME280;55638;51.122;13.606;2022-11-20T07:09:01;99739.91;;;-7.85;62.07
68656;BME280;55638;51.122;13.606;2022-11-20T07:10:33;99748.56;;;-7.81;61.98
68656;BME280;55638;51.122;13.606;2022-11-20T07:12:05;99745.03;;;-7.80;61.87
68656;BME280;55638;51.122;13.606;2022-11-20T07:13:37;99740.63;;;-7.78;61.96
68656;BME280;55638;51.122;13.606;2022-11-20T07:15:09;99735.34;;;-7.76;61.88
68656;BME280;55638;51.122;13.606;2022-11-20T07:16:40;99735.34;;;-7.75;61.90
68656;BME280;55638;51.122;13.606;2022-11-20T07:18:12;99734.47;;;-7.75;61.94
68656;BME280;55638;51.122;13.606;2022-11-20T07:19:44;99739.69;;;-7.74;61.63
68656;BME280;55638;51.122;13.606;2022-11-20T07:21:16;99733.47;;;-7.70;61.73
68656;BME280;55638;51.122;13.606;2022-11-20T07:22:53;99737.91;;;-7.72;61.67
68656;BME280;55638;51.122;13.606;2022-11-20T07:24:25;99743.00;;;-7.66;61.95
68656;BME280;55638;51.122;13.606;2022-11-20T07:25:56;99739.50;;;-7.65;62.00
68656;BME280;55638;51.122;13.606;2022-11-20T07:27:29;99742.00;;;-7.60;61.86
68656;BME280;55638;51.122;13.606;2022-11-20T07:29:00;99735.84;;;-7.57;61.92
68656;BME280;55638;51.122;13.606;2022-11-20T07:30:32;99734.06;;;-7.55;61.83
68656;BME280;55638;51.122;13.606;2022-11-20T07:32:04;99738.38;;;-7.53;61.92
68656;BME280;55638;51.122;13.606;2022-11-20T07:33:36;99734.84;;;-7.52;61.93
68656;BME280;55638;51.122;13.606;2022-11-20T07:35:08;99725.22;;;-7.51;61.78
68656;BME280;55638;51.122;13.606;2022-11-20T07:36:39;99732.16;;;-7.49;61.79
68656;BME280;55638;51.122;13.606;2022-11-20T07:38:11;99733.00;;;-7.47;61.90
68656;BME280;55638;51.122;13.606;2022-11-20T07:39:43;99730.31;;;-7.45;62.11
68656;BME280;55638;51.122;13.606;2022-11-20T07:41:15;99739.00;;;-7.42;61.94
68656;BME280;55638;51.122;13.606;2022-11-20T07:42:52;99740.75;;;-7.42;61.78
68656;BME280;55638;51.122;13.606;2022-11-20T07:44:24;99740.69;;;-7.39;61.81
68656;BME280;55638;51.122;13.606;2022-11-20T07:45:57;99736.22;;;-7.35;62.09
68656;BME280;55638;51.122;13.606;2022-11-20T07:47:34;99738.00;;;-7.36;61.98
68656;BME280;55638;51.122;13.606;2022-11-20T07:49:06;99735.25;;;-7.30;62.18
68656;BME280;55638;51.122;13.606;2022-11-20T07:50:38;99731.72;;;-7.29;62.25
68656;BME280;55638;51.122;13.606;2022-11-20T07:52:10;99728.13;;;-7.25;62.31
68656;BME280;55638;51.122;13.606;2022-11-20T07:53:41;99728.91;;;-7.21;62.20
68656;BME280;55638;51.122;13.606;2022-11-20T07:55:13;99733.22;;;-7.19;61.96
68656;BME280;55638;51.122;13.606;2022-11-20T07:56:46;99727.03;;;-7.16;62.21
68656;BME280;55638;51.122;13.606;2022-11-20T07:58:19;99721.72;;;-7.13;62.02
68656;BME280;55638;51.122;13.606;2022-11-20T07:59:51;99713.81;;;-7.11;62.08
68656;BME280;55638;51.122;13.606;2022-11-20T08:01:23;99713.78;;;-7.10;61.98
68656;BME280;55638;51.122;13.606;2022-11-20T08:02:55;99722.47;;;-7.08;62.07
68656;BME280;55638;51.122;13.606;2022-11-20T08:04:27;99718.97;;;-7.07;61.84
68656;BME280;55638;51.122;13.606;2022-11-20T08:05:59;99731.09;;;-7.01;61.96
68656;BME280;55638;51.122;13.606;2022-11-20T08:07:38;99728.41;;;-7.00;61.95
68656;BME280;55638;51.122;13.606;2022-11-20T08:09:10;99724.88;;;-6.99;61.54
68656;BME280;55638;51.122;13.606;2022-11-20T08:10:42;99732.66;;;-6.94;62.13